sensor_id;sensor_type;location;lat;lon;timestamp;pressure;altitude;pressure_sealevel;temperature;humidity
73422;BME280;61637;47.760;-122.022;2022-11-20T00:00:00;102607.617;;;5.7;unknown
73422;BME280;61637;47.760;-122.022;2022-11-20T00:02:00;102607.617;;;5.7;unknown
73422;BME280;61637;47.760;-122.022;2022-11-20T00:04:00;102607.617;;;5.6;unknown
73422;BME280;61637;47.760;-122.022;2022-11-20T00:06:00;102607.617;;;5.5;unknown
73422;BME280;61637;47.760;-122.022;2022-11-20T00:08:00;102607.617;;;5.4;unknown
73422;BME280;61637;47.760;-122.022;2022-11-20T00:10:00;102607.617;;;5.4;unknown
73422;BME280;61637;47.760;-122.022;2022-11-20T00:12:00;102607.617;;;5.3;unknown
73422;BME280;61637;47.760;-122.022;2022-11-20T00:14:00;102607.617;;;5.3;unknown
73422;BME280;61637;47.760;-122.022;2022-11-20T00:16:01;102607.617;;;5.2;unknown
73422;BME280;61637;47.760;-122.022;2022-11-20T00:18:00;102607.617;;;5.2;unknown
73422;BME280;61637;47.760;-122.022;2022-11-20T00:20:01;102607.617;;;5.1;unknown
73422;BME280;61637;47.760;-122.022;2022-11-20T00:22:00;102607.617;;;5.1;unknown
73422;BME280;61637;47.760;-122.022;2022-11-20T00:24:00;102607.617;;;4.9;unknown
73422;BME280;61637;47.760;-122.022;2022-11-20T00:26:02;102607.617;;;4.8;unknown
73422;BME280;61637;47.760;-122.022;2022-11-20T00:28:00;102607.617;;;4.8;unknown
73422;BME280;61637;47.760;-122.022;2022-11-20T00:30:00;102607.617;;;4.7;unknown
73422;BME280;61637;47.760;-122.022;2022-11-20T00:32:00;102607.617;;;4.6;unknown
73422;BME280;61637;47.760;-122.022;2022-11-20T00:34:00;102607.617;;;4.5;unknown
73422;BME280;61637;47.760;-122.022;2022-11-20T00:36:00;102607.617;;;4.4;unknown
73422;BME280;61637;47.760;-122.022;2022-11-20T00:38:00;102607.617;;;4.3;unknown
73422;BME280;61637;47.760;-122.022;2022-11-20T00:40:00;102607.617;;;4.3;unknown
73422;BME280;61637;47.760;-122.022;2022-11-20T00:42:00;102607.617;;;4.2;unknown
73422;BME280;61637;47.760;-122.022;2022-11-20T00:44:00;102607.617;;;4.1;unknown
73422;BME280;61637;47.760;-122.022;2022-11-20T00:46:01;102607.617;;;4.1;unknown
73422;BME280;61637;47.760;-122.022;2022-11-20T00:48:00;102607.617;;;3.9;unknown
73422;BME280;61637;47.760;-122.022;2022-11-20T00:50:00;102607.617;;;3.9;unknown
73422;BME280;61637;47.760;-122.022;2022-11-20T00:52:00;102607.617;;;3.8;unknown
73422;BME280;61637;47.760;-122.022;2022-11-20T00:54:00;102607.617;;;3.7;unknown
73422;BME280;61637;47.760;-122.022;2022-11-20T00:56:01;102607.617;;;3.7;unknown
73422;BME280;61637;47.760;-122.022;2022-11-20T00:58:00;102607.617;;;3.6;unknown
73422;BME280;61637;47.760;-122.022;2022-11-20T01:00:00;102607.617;;;3.5;unknown
73422;BME280;61637;47.760;-122.022;2022-11-20T01:02:00;102607.617;;;3.4;unknown
73422;BME280;61637;47.760;-122.022;2022-11-20T01:04:00;102607.617;;;3.4;unknown
73422;BME280;61637;47.760;-122.022;2022-11-20T01:06:01;102607.617;;;3.3;unknown
73422;BME280;61637;47.760;-122.022;2022-11-20T01:08:00;102607.617;;;3.2;unknown
73422;BME280;61637;47.760;-122.022;2022-11-20T01:10:00;102607.617;;;3.2;unknown
73422;BME280;61637;47.760;-122.022;2022-11-20T01:12:00;102607.617;;;3.1;unknown
73422;BME280;61637;47.760;-122.022;2022-11-20T01:14:01;102607.617;;;3.1;unknown
73422;BME280;61637;47.760;-122.022;2022-11-20T01:16:02;102607.617;;;3.1;unknown
73422;BME280;61637;47.760;-122.022;2022-11-20T01:18:00;102607.617;;;3.0;unknown
73422;BME280;61637;47.760;-122.022;2022-11-20T01:20:01;102607.617;;;2.9;unknown
73422;BME280;61637;47.760;-122.022;2022-11-20T01:22:00;102607.617;;;2.9;unknown
73422;BME280;61637;47.760;-122.022;2022-11-20T01:24:00;102607.617;;;2.8;unknown
73422;BME280;61637;47.760;-122.022;2022-11-20T01:26:01;102607.617;;;2.8;unknown
73422;BME280;61637;47.760;-122.022;2022-11-20T01:28:00;102607.617;;;2.8;unknown
73422;BME280;61637;47.760;-122.022;2022-11-20T01:30:00;102607.617;;;2.7;unknown
73422;BME280;61637;47.760;-122.022;2022-11-20T01:32:00;102607.617;;;2.7;unknown
73422;BME280;61637;47.760;-122.022;2022-11-20T01:34:01;102607.617;;;2.7;unknown
73422;BME280;61637;47.760;-122.022;2022-11-20T01:36:04;102607.617;;;2.7;unknown
73422;BME280;61637;47.760;-122.022;2022-11-20T01:38:00;102607.617;;;2.7;unknown
73422;BME280;61637;47.760;-122.022;2022-11-20T01:40:00;102607.617;;;2.7;unknown
73422;BME280;61637;47.760;-122.022;2022-11-20T01:42:00;102607.617;;;2.7;unknown
73422;BME280;61637;47.760;-122.022;2022-11-20T01:44:01;102607.617;;;2.7;unknown
73422;BME280;61637;47.760;-122.022;2022-11-20T01:48:00;102607.617;;;2.7;unavailable
73422;BME280;61637;47.760;-122.022;2022-11-20T01:50:03;102607.617;;;2.8;unavailable
73422;BME280;61637;47.760;-122.022;2022-11-20T01:52:01;102607.617;;;2.8;unavailable
73422;BME280;61637;47.760;-122.022;2022-11-20T01:54:02;102607.617;;;2.8;unavailable
73422;BME280;61637;47.760;-122.022;2022-11-20T01:56:01;102607.617;;;2.8;unavailable
73422;BME280;61637;47.760;-122.022;2022-11-20T01:58:00;102607.617;;;2.7;unavailable
73422;BME280;61637;47.760;-122.022;2022-11-20T02:00:02;102607.617;;;2.7;unavailable
73422;BME280;61637;47.760;-122.022;2022-11-20T02:02:00;102607.617;;;2.7;unavailable
73422;BME280;61637;47.760;-122.022;2022-11-20T02:04:00;102607.617;;;2.7;unavailable
73422;BME280;61637;47.760;-122.022;2022-11-20T02:06:02;102607.617;;;2.7;unavailable
73422;BME280;61637;47.760;-122.022;2022-11-20T02:08:01;102607.617;;;2.7;unavailable
73422;BME280;61637;47.760;-122.022;2022-11-20T02:10:00;102607.617;;;2.7;unavailable
73422;BME280;61637;47.760;-122.022;2022-11-20T02:12:00;102607.617;;;2.7;unavailable
73422;BME280;61637;47.760;-122.022;2022-11-20T02:14:00;102607.617;;;2.7;unavailable
73422;BME280;61637;47.760;-122.022;2022-11-20T02:16:00;102607.617;;;2.6;unavailable
73422;BME280;61637;47.760;-122.022;2022-11-20T02:18:00;102607.617;;;2.6;unavailable
73422;BME280;61637;47.760;-122.022;2022-11-20T02:20:00;102607.617;;;2.6;unavailable
73422;BME280;61637;47.760;-122.022;2022-11-20T02:22:02;102607.617;;;2.5;unavailable
73422;BME280;61637;47.760;-122.022;2022-11-20T02:24:02;102607.617;;;2.4;unavailable
73422;BME280;61637;47.760;-122.022;2022-11-20T02:26:01;102607.617;;;2.4;unavailable
73422;BME280;61637;47.760;-122.022;2022-11-20T02:28:00;102607.617;;;2.4;unavailable
73422;BME280;61637;47.760;-122.022;2022-11-20T02:30:01;102607.617;;;2.4;unavailable
73422;BME280;61637;47.760;-122.022;2022-11-20T02:32:00;102607.617;;;2.4;unavailable
73422;BME280;61637;47.760;-122.022;2022-11-20T02:34:00;102607.617;;;2.4;unavailable
73422;BME280;61637;47.760;-122.022;2022-11-20T02:36:00;102607.617;;;2.4;unavailable
73422;BME280;61637;47.760;-122.022;2022-11-20T02:38:01;102607.617;;;2.4;unavailable
73422;BME280;61637;47.760;-122.022;2022-11-20T02:40:00;102607.617;;;2.4;unavailable
73422;BME280;61637;47.760;-122.022;2022-11-20T02:42:01;102607.617;;;2.3;unavailable
73422;BME280;61637;47.760;-122.022;2022-11-20T02:44:00;102607.617;;;2.3;unavailable
73422;BME280;61637;47.760;-122.022;2022-11-20T02:46:00;102607.617;;;2.2;unavailable
73422;BME280;61637;47.760;-122.022;2022-11-20T02:48:00;102607.617;;;2.2;unavailable
73422;BME280;61637;47.760;-122.022;2022-11-20T02:50:00;102607.617;;;2.1;unavailable
73422;BME280;61637;47.760;-122.022;2022-11-20T02:52:00;102607.617;;;2.0;unavailable
73422;BME280;61637;47.760;-122.022;2022-11-20T02:54:01;102607.617;;;2.0;unavailable
73422;BME280;61637;47.760;-122.022;2022-11-20T02:56:00;102607.617;;;1.9;unavailable
73422;BME280;61637;47.760;-122.022;2022-11-20T02:58:00;102607.617;;;1.9;unavailable
73422;BME280;61637;47.760;-122.022;2022-11-20T03:00:00;102607.617;;;1.8;unavailable
73422;BME280;61637;47.760;-122.022;2022-11-20T03:02:00;102607.617;;;1.8;unavailable
73422;BME280;61637;47.760;-122.022;2022-11-20T03:04:00;102607.617;;;1.8;unavailable
73422;BME280;61637;47.760;-122.022;2022-11-20T03:06:00;102607.617;;;1.7;unavailable
73422;BME280;61637;47.760;-122.022;2022-11-20T03:08:00;102607.617;;;1.7;unavailable
73422;BME280;61637;47.760;-122.022;2022-11-20T03:10:00;102607.617;;;1.8;unavailable
73422;BME280;61637;47.760;-122.022;2022-11-20T03:12:00;102607.617;;;1.7;unavailable
73422;BME280;61637;47.760;-122.022;2022-11-20T03:14:01;102607.617;;;1.7;unavailable
73422;BME280;61637;47.760;-122.022;2022-11-20T03:16:04;102607.617;;;1.7;unavailable
73422;BME280;61637;47.760;-122.022;2022-11-20T03:18:00;102607.617;;;1.7;unavailable
73422;BME280;61637;47.760;-122.022;2022-11-20T03:20:00;102607.617;;;1.7;unavailable
73422;BME280;61637;47.760;-122.022;2022-11-20T03:22:00;102607.617;;;1.7;unavailable
73422;BME280;61637;47.760;-122.022;2022-11-20T03:24:00;102607.617;;;1.7;unavailable
73422;BME280;61637;47.760;-122.022;2022-11-20T03:28:00;102607.617;;;1.8;unavailable
73422;BME280;61637;47.760;-122.022;2022-11-20T03:30:00;102607.617;;;1.8;unavailable
73422;BME280;61637;47.760;-122.022;2022-11-20T03:32:00;102607.617;;;1.8;unavailable
73422;BME280;61637;47.760;-122.022;2022-11-20T03:34:00;102607.617;;;1.8;unavailable
73422;BME280;61637;47.760;-122.022;2022-11-20T03:36:01;102607.617;;;1.8;unavailable
73422;BME280;61637;47.760;-122.022;2022-11-20T03:38:00;102607.617;;;1.8;unavailable
73422;BME280;61637;47.760;-122.022;2022-11-20T03:40:00;102607.617;;;1.8;unavailable
73422;BME280;61637;47.760;-122.022;2022-11-20T03:42:00;102607.617;;;1.8;unavailable
73422;BME280;61637;47.760;-122.022;2022-11-20T03:44:01;102607.617;;;1.8;unavailable
73422;BME280;61637;47.760;-122.022;2022-11-20T03:46:00;102607.617;;;1.8;unavailable
73422;BME280;61637;47.760;-122.022;2022-11-20T03:48:00;102607.617;;;1.8;unavailable
73422;BME280;61637;47.760;-122.022;2022-11-20T03:50:00;102607.617;;;1.8;unavailable
73422;BME280;61637;47.760;-122.022;2022-11-20T03:52:00;102607.617;;;1.8;unavailable
73422;BME280;61637;47.760;-122.022;2022-11-20T03:54:01;102607.617;;;1.8;unavailable
73422;BME280;61637;47.760;-122.022;2022-11-20T03:56:00;102607.617;;;1.8;unavailable
73422;BME280;61637;47.760;-122.022;2022-11-20T03:58:00;102607.617;;;1.7;unavailable
73422;BME280;61637;47.760;-122.022;2022-11-20T04:00:00;102607.617;;;1.7;unavailable
73422;BME280;61637;47.760;-122.022;2022-11-20T04:02:00;102607.617;;;1.7;unavailable
73422;BME280;61637;47.760;-122.022;2022-11-20T04:04:01;102607.617;;;1.7;unavailable
73422;BME280;61637;47.760;-122.022;2022-11-20T04:06:02;102607.617;;;1.7;unavailable
73422;BME280;61637;47.760;-122.022;2022-11-20T04:08:00;102607.617;;;1.7;unavailable
73422;BME280;61637;47.760;-122.022;2022-11-20T04:10:00;102607.617;;;1.7;unavailable
73422;BME280;61637;47.760;-122.022;2022-11-20T04:12:00;102607.617;;;1.6;unavailable
73422;BME280;61637;47.760;-122.022;2022-11-20T04:14:01;102607.617;;;1.7;unavailable
73422;BME280;61637;47.760;-122.022;2022-11-20T04:16:00;102607.617;;;1.7;unavailable
73422;BME280;61637;47.760;-122.022;2022-11-20T04:18:00;102607.617;;;1.7;unavailable
73422;BME280;61637;47.760;-122.022;2022-11-20T04:20:00;102607.617;;;1.7;unavailable
73422;BME280;61637;47.760;-122.022;2022-11-20T04:22:00;102607.617;;;1.7;unavailable
73422;BME280;61637;47.760;-122.022;2022-11-20T04:24:00;102607.617;;;1.7;unavailable
73422;BME280;61637;47.760;-122.022;2022-11-20T04:26:01;102607.617;;;1.7;unavailable
73422;BME280;61637;47.760;-122.022;2022-11-20T04:28:01;102607.617;;;1.7;unavailable
73422;BME280;61637;47.760;-122.022;2022-11-20T04:30:00;102607.617;;;1.6;unavailable
73422;BME280;61637;47.760;-122.022;2022-11-20T04:32:00;102607.617;;;1.6;unavailable
73422;BME280;61637;47.760;-122.022;2022-11-20T04:34:00;102607.617;;;1.6;unavailable
73422;BME280;61637;47.760;-122.022;2022-11-20T04:36:01;102607.617;;;1.6;unavailable
73422;BME280;61637;47.760;-122.022;2022-11-20T04:38:00;102607.617;;;1.5;unavailable
73422;BME280;61637;47.760;-122.022;2022-11-20T04:40:00;102607.617;;;1.5;unavailable
73422;BME280;61637;47.760;-122.022;2022-11-20T04:42:00;102607.617;;;1.4;unavailable
73422;BME280;61637;47.760;-122.022;2022-11-20T04:44:01;102607.617;;;1.4;unavailable
73422;BME280;61637;47.760;-122.022;2022-11-20T04:46:00;102607.617;;;1.4;unavailable
73422;BME280;61637;47.760;-122.022;2022-11-20T04:48:00;102607.617;;;1.3;unavailable
73422;BME280;61637;47.760;-122.022;2022-11-20T04:50:00;102607.617;;;1.4;unavailable
73422;BME280;61637;47.760;-122.022;2022-11-20T04:52:00;102607.617;;;1.4;unavailable
73422;BME280;61637;47.760;-122.022;2022-11-20T04:54:00;102607.617;;;1.4;unavailable
73422;BME280;61637;47.760;-122.022;2022-11-20T04:56:00;102607.617;;;1.4;unavailable
73422;BME280;61637;47.760;-122.022;2022-11-20T04:58:00;102607.617;;;1.5;unavailable
73422;BME280;61637;47.760;-122.022;2022-11-20T05:00:00;102607.617;;;1.5;unavailable
73422;BME280;61637;47.760;-122.022;2022-11-20T05:02:00;102607.617;;;1.5;unavailable
73422;BME280;61637;47.760;-122.022;2022-11-20T05:04:00;102607.617;;;1.5;unavailable
73422;BME280;61637;47.760;-122.022;2022-11-20T05:06:00;102607.617;;;1.6;unavailable
73422;BME280;61637;47.760;-122.022;2022-11-20T05:08:00;102607.617;;;1.5;unavailable
73422;BME280;61637;47.760;-122.022;2022-11-20T05:10:00;102607.617;;;1.6;unavailable
73422;BME280;61637;47.760;-122.022;2022-11-20T05:12:00;102607.617;;;1.6;unavailable
73422;BME280;61637;47.760;-122.022;2022-11-20T05:14:01;102607.617;;;1.6;unavailable
73422;BME280;61637;47.760;-122.022;2022-11-20T05:16:01;102607.617;;;1.6;unavailable
73422;BME280;61637;47.760;-122.022;2022-11-20T05:18:00;102607.617;;;1.5;unavailable
73422;BME280;61637;47.760;-122.022;2022-11-20T05:20:00;102607.617;;;1.5;unavailable
73422;BME280;61637;47.760;-122.022;2022-11-20T05:22:00;102607.617;;;1.4;unavailable
73422;BME280;61637;47.760;-122.022;2022-11-20T05:24:00;102607.617;;;1.4;unavailable
73422;BME280;61637;47.760;-122.022;2022-11-20T05:26:01;102607.617;;;1.4;unavailable
73422;BME280;61637;47.760;-122.022;2022-11-20T05:28:00;102607.617;;;1.4;unavailable
73422;BME280;61637;47.760;-122.022;2022-11-20T05:30:00;102607.617;;;1.4;unavailable
73422;BME280;61637;47.760;-122.022;2022-11-20T05:32:00;102607.617;;;1.3;unavailable
73422;BME280;61637;47.760;-122.022;2022-11-20T05:34:00;102607.617;;;1.3;unavailable
73422;BME280;61637;47.760;-122.022;2022-11-20T05:36:00;102607.617;;;1.3;unavailable
73422;BME280;61637;47.760;-122.022;2022-11-20T05:38:00;102607.617;;;1.3;unavailable
73422;BME280;61637;47.760;-122.022;2022-11-20T05:40:00;102607.617;;;1.3;unavailable
73422;BME280;61637;47.760;-122.022;2022-11-20T05:42:00;102607.617;;;1.2;unavailable
73422;BME280;61637;47.760;-122.022;2022-11-20T05:44:00;102607.617;;;1.1;unavailable
73422;BME280;61637;47.760;-122.022;2022-11-20T05:46:00;102607.617;;;1.1;unavailable
73422;BME280;61637;47.760;-122.022;2022-11-20T05:48:00;102607.617;;;1.0;unavailable
73422;BME280;61637;47.760;-122.022;2022-11-20T05:50:00;102607.617;;;0.9;unavailable
73422;BME280;61637;47.760;-122.022;2022-11-20T05:52:00;102607.617;;;0.8;unavailable
73422;BME280;61637;47.760;-122.022;2022-11-20T05:54:00;102607.617;;;0.8;unavailable
73422;BME280;61637;47.760;-122.022;2022-11-20T05:56:01;102607.617;;;0.7;unavailable
73422;BME280;61637;47.760;-122.022;2022-11-20T05:58:00;102607.617;;;0.6;unavailable
73422;BME280;61637;47.760;-122.022;2022-11-20T06:00:00;102607.617;;;0.6;unavailable
73422;BME280;61637;47.760;-122.022;2022-11-20T06:02:00;102607.617;;;0.6;unavailable
73422;BME280;61637;47.760;-122.022;2022-11-20T06:04:00;102607.617;;;0.6;unavailable
73422;BME280;61637;47.760;-122.022;2022-11-20T06:06:01;102607.617;;;0.6;unavailable
73422;BME280;61637;47.760;-122.022;2022-11-20T06:08:00;102607.617;;;0.6;unavailable
73422;BME280;61637;47.760;-122.022;2022-11-20T06:10:00;102607.617;;;0.6;unavailable
73422;BME280;61637;47.760;-122.022;2022-11-20T06:12:00;102607.617;;;0.6;unavailable
73422;BME280;61637;47.760;-122.022;2022-11-20T06:14:00;102607.617;;;0.7;unavailable
73422;BME280;61637;47.760;-122.022;2022-11-20T06:16:00;102607.617;;;0.7;unavailable
73422;BME280;61637;47.760;-122.022;2022-11-20T06:18:00;102607.617;;;0.6;unavailable
73422;BME280;61637;47.760;-122.022;2022-11-20T06:20:00;102607.617;;;0.6;unknown
73422;BME280;61637;47.760;-122.022;2022-11-20T06:22:00;102607.617;;;0.6;unknown
73422;BME280;61637;47.760;-122.022;2022-11-20T06:24:00;102607.617;;;0.5;unavailable
73422;BME280;61637;47.760;-122.022;2022-11-20T06:26:01;102607.617;;;0.4;unknown
73422;BME280;61637;47.760;-122.022;2022-11-20T06:28:00;102607.617;;;0.4;unknown
73422;BME280;61637;47.760;-122.022;2022-11-20T06:30:00;102607.617;;;0.4;unknown
73422;BME280;61637;47.760;-122.022;2022-11-20T06:32:00;102607.617;;;0.4;unknown
73422;BME280;61637;47.760;-122.022;2022-11-20T06:34:00;102607.617;;;0.4;unknown
73422;BME280;61637;47.760;-122.022;2022-11-20T06:36:01;102607.617;;;0.4;unknown
73422;BME280;61637;47.760;-122.022;2022-11-20T06:38:00;102607.617;;;0.4;unknown
73422;BME280;61637;47.760;-122.022;2022-11-20T06:40:00;102607.617;;;0.4;unknown
73422;BME280;61637;47.760;-122.022;2022-11-20T06:42:00;102607.617;;;0.4;unknown
73422;BME280;61637;47.760;-122.022;2022-11-20T06:44:00;102607.617;;;0.4;unknown
73422;BME280;61637;47.760;-122.022;2022-11-20T06:46:00;102607.617;;;0.4;unknown
73422;BME280;61637;47.760;-122.022;2022-11-20T06:48:00;102607.617;;;0.4;unknown
73422;BME280;61637;47.760;-122.022;2022-11-20T06:50:00;102607.617;;;0.4;unknown
73422;BME280;61637;47.760;-122.022;2022-11-20T06:52:00;102607.617;;;0.3;unknown
73422;BME280;61637;47.760;-122.022;2022-11-20T06:54:00;102607.617;;;0.3;unknown
73422;BME280;61637;47.760;-122.022;2022-11-20T06:56:00;102607.617;;;0.3;unknown
73422;BME280;61637;47.760;-122.022;2022-11-20T06:58:00;102607.617;;;0.3;unknown
73422;BME280;61637;47.760;-122.022;2022-11-20T07:00:00;102607.617;;;0.2;unknown
73422;BME280;61637;47.760;-122.022;2022-11-20T07:02:00;102607.617;;;0.3;unknown
73422;BME280;61637;47.760;-122.022;2022-11-20T07:04:00;102607.617;;;0.2;unknown
73422;BME280;61637;47.760;-122.022;2022-11-20T07:06:01;102607.617;;;0.2;unknown
73422;BME280;61637;47.760;-122.022;2022-11-20T07:08:00;102607.617;;;0.2;unknown
73422;BME280;61637;47.760;-122.022;2022-11-20T07:10:00;102607.617;;;0.2;unknown
73422;BME280;61637;47.760;-122.022;2022-11-20T07:12:00;102607.617;;;0.2;unknown
73422;BME280;61637;47.760;-122.022;2022-11-20T07:14:00;102607.617;;;0.2;unknown
73422;BME280;61637;47.760;-122.022;2022-11-20T07:16:01;102607.617;;;0.3;unknown
73422;BME280;61637;47.760;-122.022;2022-11-20T07:18:01;102607.617;;;0.3;unknown
73422;BME280;61637;47.760;-122.022;2022-11-20T07:20:00;102607.617;;;0.3;unknown
73422;BME280;61637;47.760;-122.022;2022-11-20T07:22:00;102607.617;;;0.3;unknown
73422;BME280;61637;47.760;-122.022;2022-11-20T07:24:00;102607.617;;;0.4;unknown
73422;BME280;61637;47.760;-122.022;2022-11-20T07:26:02;102607.617;;;0.4;unknown
73422;BME280;61637;47.760;-122.022;2022-11-20T07:28:00;102607.617;;;0.5;unknown
73422;BME280;61637;47.760;-122.022;2022-11-20T07:30:00;102607.617;;;0.5;unknown
73422;BME280;61637;47.760;-122.022;2022-11-20T07:32:00;102607.617;;;0.6;unknown
73422;BME280;61637;47.760;-122.022;2022-11-20T07:34:00;102607.617;;;0.6;unknown
73422;BME280;61637;47.760;-122.022;2022-11-20T07:36:01;102607.617;;;0.5;unknown
73422;BME280;61637;47.760;-122.022;2022-11-20T07:38:00;102607.617;;;0.5;unknown
73422;BME280;61637;47.760;-122.022;2022-11-20T07:40:00;102607.617;;;0.5;unknown
73422;BME280;61637;47.760;-122.022;2022-11-20T07:42:00;102607.617;;;0.4;unknown
73422;BME280;61637;47.760;-122.022;2022-11-20T07:44:00;102607.617;;;0.5;unknown
73422;BME280;61637;47.760;-122.022;2022-11-20T07:46:00;102607.617;;;0.5;unknown
73422;BME280;61637;47.760;-122.022;2022-11-20T07:48:00;102607.617;;;0.5;unknown
73422;BME280;61637;47.760;-122.022;2022-11-20T07:50:00;102607.617;;;0.5;unknown
73422;BME280;61637;47.760;-122.022;2022-11-20T07:52:00;102607.617;;;0.6;unknown
73422;BME280;61637;47.760;-122.022;2022-11-20T07:54:00;102607.617;;;0.5;unknown
73422;BME280;61637;47.760;-122.022;2022-11-20T07:56:00;102607.617;;;0.5;unknown
73422;BME280;61637;47.760;-122.022;2022-11-20T07:58:00;102607.617;;;0.5;unknown
73422;BME280;61637;47.760;-122.022;2022-11-20T08:00:00;102607.617;;;0.5;unknown
73422;BME280;61637;47.760;-122.022;2022-11-20T08:02:00;102607.617;;;0.5;unknown
73422;BME280;61637;47.760;-122.022;2022-11-20T08:04:00;102607.617;;;0.5;unknown
73422;BME280;61637;47.760;-122.022;2022-11-20T08:06:00;102607.617;;;0.5;unknown
73422;BME280;61637;47.760;-122.022;2022-11-20T08:08:00;102607.617;;;0.6;unknown
73422;BME280;61637;47.760;-122.022;2022-11-20T08:10:00;102607.617;;;0.5;unknown
73422;BME280;61637;47.760;-122.022;2022-11-20T08:12:00;102607.617;;;0.5;unknown
73422;BME280;61637;47.760;-122.022;2022-11-20T08:14:01;102607.617;;;0.5;unknown
73422;BME280;61637;47.760;-122.022;2022-11-20T08:16:00;102607.617;;;0.6;unknown
73422;BME280;61637;47.760;-122.022;2022-11-20T08:18:01;102607.617;;;0.6;unknown
73422;BME280;61637;47.760;-122.022;2022-11-20T08:20:00;102607.617;;;0.7;unknown
73422;BME280;61637;47.760;-122.022;2022-11-20T08:22:00;102607.617;;;0.8;unknown
73422;BME280;61637;47.760;-122.022;2022-11-20T08:24:01;102607.617;;;0.9;unknown
73422;BME280;61637;47.760;-122.022;2022-11-20T08:26:00;102607.617;;;0.9;unknown
73422;BME280;61637;47.760;-122.022;2022-11-20T08:28:00;102607.617;;;1.0;unknown
73422;BME280;61637;47.760;-122.022;2022-11-20T08:30:00;102607.617;;;1.1;unknown
73422;BME280;61637;47.760;-122.022;2022-11-20T08:32:00;102607.617;;;1.1;unknown
73422;BME280;61637;47.760;-122.022;2022-11-20T08:34:00;102607.617;;;1.2;unknown
73422;BME280;61637;47.760;-122.022;2022-11-20T08:36:01;102607.617;;;1.2;unknown
73422;BME280;61637;47.760;-122.022;2022-11-20T08:38:00;102607.617;;;1.3;unknown
73422;BME280;61637;47.760;-122.022;2022-11-20T08:40:00;102607.617;;;1.3;unknown
73422;BME280;61637;47.760;-122.022;2022-11-20T08:42:00;102607.617;;;1.3;unknown
73422;BME280;61637;47.760;-122.022;2022-11-20T08:44:01;102607.617;;;1.3;unknown
73422;BME280;61637;47.760;-122.022;2022-11-20T08:46:00;102607.617;;;1.3;unknown
73422;BME280;61637;47.760;-122.022;2022-11-20T08:48:00;102607.617;;;1.3;unknown
73422;BME280;61637;47.760;-122.022;2022-11-20T08:50:00;102607.617;;;1.3;unknown
73422;BME280;61637;47.760;-122.022;2022-11-20T08:52:00;102607.617;;;1.3;unknown
73422;BME280;61637;47.760;-122.022;2022-11-20T08:54:00;102607.617;;;1.3;unknown
73422;BME280;61637;47.760;-122.022;2022-11-20T08:56:00;102607.617;;;1.3;unknown
73422;BME280;61637;47.760;-122.022;2022-11-20T08:58:03;102607.617;;;1.3;unknown
73422;BME280;61637;47.760;-122.022;2022-11-20T09:00:00;102607.617;;;1.3;unknown
73422;BME280;61637;47.760;-122.022;2022-11-20T09:02:00;102607.617;;;1.3;unknown
73422;BME280;61637;47.760;-122.022;2022-11-20T09:04:00;102607.617;;;1.2;unknown
73422;BME280;61637;47.760;-122.022;2022-11-20T09:06:01;102607.617;;;1.2;unknown
73422;BME280;61637;47.760;-122.022;2022-11-20T09:08:00;102607.617;;;1.1;unknown
73422;BME280;61637;47.760;-122.022;2022-11-20T09:10:00;102607.617;;;1.1;unknown
73422;BME280;61637;47.760;-122.022;2022-11-20T09:12:00;102607.617;;;1.1;unknown
73422;BME280;61637;47.760;-122.022;2022-11-20T09:14:00;102607.617;;;1.1;unknown
73422;BME280;61637;47.760;-122.022;2022-11-20T09:16:01;102607.617;;;1.1;unknown
73422;BME280;61637;47.760;-122.022;2022-11-20T09:18:01;102607.617;;;1.1;unknown
73422;BME280;61637;47.760;-122.022;2022-11-20T09:20:00;102607.617;;;1.1;unknown
73422;BME280;61637;47.760;-122.022;2022-11-20T09:22:00;102607.617;;;1.2;unknown
73422;BME280;61637;47.760;-122.022;2022-11-20T09:24:00;102607.617;;;1.2;unknown
73422;BME280;61637;47.760;-122.022;2022-11-20T09:26:01;102607.617;;;1.2;unknown
73422;BME280;61637;47.760;-122.022;2022-11-20T09:28:00;102607.617;;;1.2;unknown
73422;BME280;61637;47.760;-122.022;2022-11-20T09:30:00;102607.617;;;1.2;unknown
73422;BME280;61637;47.760;-122.022;2022-11-20T09:32:00;102607.617;;;1.1;unknown
73422;BME280;61637;47.760;-122.022;2022-11-20T09:34:00;102607.617;;;1.1;unknown
73422;BME280;61637;47.760;-122.022;2022-11-20T09:36:00;102607.617;;;1.0;unknown
73422;BME280;61637;47.760;-122.022;2022-11-20T09:38:04;102607.617;;;0.9;unknown
73422;BME280;61637;47.760;-122.022;2022-11-20T09:40:00;102607.617;;;0.9;unknown
73422;BME280;61637;47.760;-122.022;2022-11-20T09:42:04;102607.617;;;0.9;unknown
73422;BME280;61637;47.760;-122.022;2022-11-20T09:44:02;102607.617;;;0.8;unknown